Time;durP1;ratioP1;P1;durP2;ratioP2;P2;SDS_P1;SDS_P2;PMS_P1;PMS_P2;Temp;Humidity;BMP_temperature;BMP_pressure;BME280_temperature;BME280_humidity;BME280_pressure;Samples;Min_cycle;Max_cycle;Signal;HPM_P1;HPM_P2
2023/12/13 00:01:31;;;;;;;176.90;106.72;;;10.70;77.80;;;;;;5009256;28;20047;-78
2023/12/13 00:04:01;;;;;;;175.57;104.80;;;10.60;50.40;;;;;;5004763;28;20046;-78
2023/12/13 00:06:29;;;;;;;174.07;101.70;;;10.60;99.90;;;;;;5002070;28;20046;-79
2023/12/13 00:08:58;;;;;;;156.73;93.55;;;10.50;45.30;;;;;;5012174;28;20097;-79
2023/12/13 00:11:25;;;;;;;118.72;73.90;;;10.60;99.90;;;;;;5012466;28;20065;-77
2023/12/13 00:13:53;;;;;;;122.90;76.53;;;10.60;82.40;;;;;;5005917;28;20057;-79
2023/12/13 00:16:21;;;;;;;115.93;73.50;;;10.60;1.20;;;;;;5015568;28;20058;-77
2023/12/13 00:18:48;;;;;;;107.93;63.63;;;10.60;42.30;;;;;;5018788;28;20117;-79
2023/12/13 00:21:18;;;;;;;102.88;63.78;;;10.50;1.00;;;;;;5019282;28;20611;-78
2023/12/13 00:23:46;;;;;;;92.78;56.38;;;10.50;60.10;;;;;;5020087;28;20046;-77
2023/12/13 00:26:15;;;;;;;86.47;52.47;;;10.50;97.60;;;;;;5021166;28;20037;-78
2023/12/13 00:28:43;;;;;;;108.80;67.10;;;10.60;99.90;;;;;;5021708;28;20026;-79
2023/12/13 00:31:11;;;;;;;118.45;68.93;;;10.60;19.20;;;;;;5023935;28;20042;-77
2023/12/13 00:33:39;;;;;;;110.07;66.05;;;10.60;1.90;;;;;;5022565;28;20034;-77
2023/12/13 00:36:07;;;;;;;127.82;84.40;;;10.70;71.90;;;;;;5020638;28;20102;-80
2023/12/13 00:38:36;;;;;;;126.80;83.80;;;10.60;1.00;;;;;;5020736;28;20072;-78
2023/12/13 00:41:04;;;;;;;121.07;80.78;;;10.60;99.90;;;;;;5006401;28;20042;-78
2023/12/13 00:43:32;;;;;;;132.73;82.63;;;10.60;93.00;;;;;;5020687;28;20049;-78
2023/12/13 00:46:00;;;;;;;102.47;61.30;;;10.70;68.00;;;;;;5021134;28;20042;-77
2023/12/13 00:48:27;;;;;;;108.45;67.15;;;10.70;1.00;;;;;;5020118;28;20293;-78
2023/12/13 00:50:56;;;;;;;110.07;65.65;;;10.70;1.00;;;;;;5019160;28;20038;-78
2023/12/13 00:53:25;;;;;;;107.55;63.25;;;10.70;1.00;;;;;;5019476;28;20046;-79
2023/12/13 00:55:54;;;;;;;108.30;65.22;;;10.80;1.00;;;;;;5000264;28;20035;-78
2023/12/13 00:58:22;;;;;;;105.38;65.32;;;10.70;1.00;;;;;;5020534;28;20027;-78
2023/12/13 01:00:49;;;;;;;80.28;50.08;;;10.70;1.00;;;;;;5019703;28;20050;-77
2023/12/13 01:03:17;;;;;;;86.78;51.35;;;10.70;1.00;;;;;;5021648;28;20065;-77
2023/12/13 01:05:44;;;;;;;103.93;58.28;;;10.60;1.00;;;;;;5024256;28;20041;-78
2023/12/13 01:08:12;;;;;;;110.55;64.90;;;10.70;1.00;;;;;;5025232;28;20039;-77
2023/12/13 01:10:40;;;;;;;113.88;68.32;;;10.70;1.00;;;;;;5007103;28;20046;-80
2023/12/13 01:13:09;;;;;;;111.90;66.15;;;10.70;1.00;;;;;;5021330;28;20048;-78
2023/12/13 01:15:37;;;;;;;112.63;68.18;;;10.70;1.00;;;;;;5016732;28;20041;-77
2023/12/13 01:18:04;;;;;;;112.93;68.22;;;10.70;1.00;;;;;;5010199;28;20080;-77
2023/12/13 01:20:32;;;;;;;110.63;68.90;;;10.70;1.00;;;;;;4992705;28;20505;-78
2023/12/13 01:23:00;;;;;;;106.55;66.55;;;10.70;1.00;;;;;;5013820;28;20050;-76
2023/12/13 01:25:27;;;;;;;100.05;64.38;;;10.80;1.00;;;;;;5005083;28;20030;-77
2023/12/13 01:27:57;;;;;;;97.28;62.05;;;10.80;1.00;;;;;;5003328;28;20513;-77
2023/12/13 01:30:26;;;;;;;104.43;63.33;;;10.70;1.00;;;;;;5003943;28;20048;-76
2023/12/13 01:32:54;;;;;;;99.53;61.15;;;10.80;1.00;;;;;;5003086;28;20452;-77
2023/12/13 01:35:24;;;;;;;103.00;64.18;;;10.90;1.00;;;;;;5006212;28;20046;-79
2023/12/13 01:37:52;;;;;;;111.55;67.80;;;10.90;1.00;;;;;;5003961;28;20046;-76
2023/12/13 01:40:19;;;;;;;109.97;67.68;;;10.80;1.00;;;;;;5012486;28;20514;-78
2023/12/13 01:42:47;;;;;;;103.03;65.22;;;10.80;1.00;;;;;;4999264;28;20045;-79
2023/12/13 01:45:14;;;;;;;107.80;64.82;;;10.80;1.00;;;;;;5015882;28;20072;-76
2023/12/13 01:47:43;;;;;;;106.25;64.82;;;10.80;1.00;;;;;;5010839;28;20038;-77
2023/12/13 01:50:11;;;;;;;105.68;65.28;;;10.80;1.00;;;;;;5001526;28;20088;-78
2023/12/13 01:52:39;;;;;;;100.00;62.60;;;10.70;1.00;;;;;;4985731;28;20038;-78
2023/12/13 01:55:10;;;;;;;100.90;63.22;;;10.80;1.00;;;;;;5000381;28;20450;-78
2023/12/13 01:57:39;;;;;;;98.65;62.13;;;10.70;1.00;;;;;;5000736;28;20046;-77
2023/12/13 02:00:08;;;;;;;102.47;63.25;;;10.70;1.00;;;;;;5002809;28;20034;-78
2023/12/13 02:02:38;;;;;;;91.15;58.00;;;10.70;1.00;;;;;;5002805;28;20422;-78
2023/12/13 02:05:09;;;;;;;84.05;55.03;;;10.60;1.00;;;;;;5001675;28;20101;-78
2023/12/13 02:07:38;;;;;;;91.10;57.53;;;10.60;1.00;;;;;;5002634;28;20498;-77
2023/12/13 02:10:07;;;;;;;85.65;55.70;;;10.60;1.00;;;;;;5003726;28;20046;-79
2023/12/13 02:12:35;;;;;;;96.20;65.88;;;10.60;1.00;;;;;;4984880;28;20089;-78
2023/12/13 02:15:03;;;;;;;89.70;63.35;;;10.70;1.00;;;;;;5001318;28;20454;-77
2023/12/13 02:17:31;;;;;;;96.53;62.80;;;10.70;1.00;;;;;;5002942;28;20502;-77
2023/12/13 02:19:59;;;;;;;101.55;61.92;;;10.60;1.00;;;;;;5000796;28;20034;-78
2023/12/13 02:22:34;;;;;;;84.97;54.53;;;10.50;12.20;;;;;;5000750;28;20038;-78
2023/12/13 02:25:04;;;;;;;82.55;50.00;;;10.50;99.90;;;;;;5001853;28;20034;-77
2023/12/13 02:27:33;;;;;;;85.60;53.30;;;10.50;99.90;;;;;;5001790;28;20091;-79
2023/12/13 02:30:01;;;;;;;98.13;58.70;;;10.50;99.90;;;;;;5001802;28;20371;-78
2023/12/13 02:32:28;;;;;;;114.82;62.33;;;10.60;99.90;;;;;;5002500;28;20054;-78
2023/12/13 02:34:56;;;;;;;120.72;68.00;;;10.60;99.90;;;;;;5001155;28;20600;-79
2023/12/13 02:37:24;;;;;;;102.00;58.88;;;10.60;47.00;;;;;;5001933;28;20046;-78
2023/12/13 02:39:53;;;;;;;97.25;55.97;;;10.60;99.90;;;;;;5001494;28;20050;-77
2023/12/13 02:42:20;;;;;;;92.60;54.35;;;10.60;99.90;;;;;;5006058;28;20112;-77
2023/12/13 02:44:48;;;;;;;88.35;50.05;;;10.60;99.90;;;;;;4996416;28;20046;-79
2023/12/13 02:47:15;;;;;;;78.57;49.03;;;10.70;99.90;;;;;;5002582;28;20045;-79
2023/12/13 02:49:43;;;;;;;75.25;45.28;;;10.60;81.70;;;;;;5002549;28;20103;-79
2023/12/13 02:52:11;;;;;;;76.93;45.63;;;10.60;99.90;;;;;;5002344;28;20037;-80
2023/12/13 02:54:38;;;;;;;82.47;46.63;;;10.60;99.90;;;;;;5000166;28;20078;-76
2023/12/13 02:57:07;;;;;;;74.65;46.50;;;10.50;99.90;;;;;;5003337;28;20506;-78
2023/12/13 02:59:36;;;;;;;81.18;49.20;;;10.50;99.90;;;;;;4985834;28;20046;-77
2023/12/13 03:02:04;;;;;;;76.38;45.08;;;10.60;99.90;;;;;;4976417;28;20401;-78
2023/12/13 03:04:31;;;;;;;73.55;45.20;;;10.50;99.90;;;;;;5006902;28;20117;-79
2023/12/13 03:07:00;;;;;;;73.07;43.45;;;10.60;99.90;;;;;;5004262;28;20045;-80
2023/12/13 03:09:28;;;;;;;61.17;38.53;;;10.60;99.90;;;;;;4984749;28;20046;-78
2023/12/13 03:11:55;;;;;;;56.78;35.17;;;10.70;99.90;;;;;;5012105;28;20085;-81
2023/12/13 03:14:25;;;;;;;50.38;31.77;;;10.70;99.90;;;;;;4999125;28;20042;-79
2023/12/13 03:16:53;;;;;;;47.25;31.52;;;10.80;91.40;;;;;;5005250;28;20403;-79
2023/12/13 03:19:20;;;;;;;46.90;31.40;;;10.80;2.50;;;;;;5001708;28;20084;-79
2023/12/13 03:21:49;;;;;;;48.20;30.35;;;10.60;42.90;;;;;;5003234;28;20043;-78
2023/12/13 03:24:16;;;;;;;49.70;32.63;;;10.60;99.90;;;;;;4982778;28;20175;-79
2023/12/13 03:26:44;;;;;;;48.97;30.95;;;10.40;99.90;;;;;;5000917;28;20044;-78
2023/12/13 03:29:12;;;;;;;43.90;28.13;;;10.40;99.90;;;;;;5001439;28;20548;-80
2023/12/13 03:31:41;;;;;;;45.65;30.83;;;10.40;99.90;;;;;;4999330;28;20617;-77
2023/12/13 03:34:09;;;;;;;61.35;38.10;;;10.40;99.90;;;;;;5007977;28;20065;-78
2023/12/13 03:36:36;;;;;;;54.50;32.03;;;10.40;99.90;;;;;;5006407;28;20056;-78
2023/12/13 03:39:04;;;;;;;49.08;28.67;;;10.40;99.90;;;;;;4997927;28;20049;-79
2023/12/13 03:41:32;;;;;;;43.22;26.42;;;10.40;99.90;;;;;;5000399;28;20037;-77
2023/12/13 03:43:59;;;;;;;41.42;25.52;;;10.40;99.90;;;;;;4998353;28;20034;-78
2023/12/13 03:46:27;;;;;;;49.97;30.25;;;10.40;99.90;;;;;;5001671;28;20088;-76
2023/12/13 03:48:56;;;;;;;58.67;37.22;;;10.50;99.90;;;;;;5007639;28;20094;-78
2023/12/13 03:51:24;;;;;;;62.95;41.60;;;10.40;99.90;;;;;;5008382;28;20054;-77
2023/12/13 03:53:51;;;;;;;70.38;41.42;;;10.40;99.90;;;;;;4998986;28;20112;-80
2023/12/13 03:56:22;;;;;;;56.38;34.00;;;10.40;99.90;;;;;;4997150;28;20494;-76
2023/12/13 03:58:50;;;;;;;51.38;33.20;;;10.40;99.90;;;;;;4984656;28;20042;-78
2023/12/13 04:01:18;;;;;;;35.67;21.45;;;10.50;99.90;;;;;;5000729;28;20041;-78
2023/12/13 04:03:45;;;;;;;36.50;22.20;;;10.30;99.90;;;;;;4999680;28;20409;-78
2023/12/13 04:06:14;;;;;;;32.47;19.45;;;10.30;99.90;;;;;;5002596;28;20498;-78
2023/12/13 04:08:42;;;;;;;38.80;26.25;;;10.30;99.90;;;;;;4997742;28;20100;-78
2023/12/13 04:11:09;;;;;;;46.03;31.50;;;10.40;99.90;;;;;;4999756;28;20050;-78
2023/12/13 04:13:37;;;;;;;45.05;30.60;;;10.40;99.90;;;;;;4999011;28;20435;-78
2023/12/13 04:16:05;;;;;;;48.72;32.08;;;10.30;99.90;;;;;;5000323;28;20064;-79
2023/12/13 04:18:33;;;;;;;50.67;33.55;;;10.30;99.90;;;;;;4997192;28;20034;-78
2023/12/13 04:21:00;;;;;;;54.22;33.38;;;10.30;99.90;;;;;;5001029;28;20105;-77
2023/12/13 04:23:29;;;;;;;49.03;31.75;;;10.30;99.90;;;;;;4979578;28;20123;-77
2023/12/13 04:25:57;;;;;;;54.55;34.72;;;10.30;99.90;;;;;;5000911;28;20038;-79
2023/12/13 04:28:24;;;;;;;54.15;33.80;;;10.40;99.90;;;;;;5000861;28;20042;-79
2023/12/13 04:30:52;;;;;;;64.10;40.58;;;10.30;99.90;;;;;;5002396;28;20037;-79
2023/12/13 04:33:20;;;;;;;46.88;31.60;;;10.30;99.90;;;;;;5002394;28;20047;-78
2023/12/13 04:35:47;;;;;;;49.45;32.08;;;10.20;99.90;;;;;;5014800;28;20034;-78
2023/12/13 04:38:15;;;;;;;46.25;30.02;;;10.20;99.90;;;;;;5026607;28;20042;-78
2023/12/13 04:40:44;;;;;;;38.67;22.92;;;10.10;99.90;;;;;;5024044;28;20038;-78
2023/12/13 04:43:11;;;;;;;37.75;23.00;;;10.00;99.90;;;;;;5027495;28;20038;-78
2023/12/13 04:45:39;;;;;;;40.75;25.35;;;10.00;99.90;;;;;;5026224;28;20035;-78
2023/12/13 04:48:07;;;;;;;49.22;28.67;;;10.10;99.90;;;;;;5023803;28;20038;-78
2023/12/13 04:50:34;;;;;;;53.55;34.45;;;10.10;99.90;;;;;;5018224;28;20521;-77
2023/12/13 04:53:02;;;;;;;55.22;35.03;;;10.10;99.90;;;;;;5005200;28;20486;-79
2023/12/13 04:55:30;;;;;;;48.25;32.22;;;10.20;99.90;;;;;;4985737;28;20070;-77
2023/12/13 04:57:59;;;;;;;39.72;25.63;;;10.10;99.90;;;;;;5004643;28;20121;-78
2023/12/13 05:00:27;;;;;;;38.05;24.83;;;10.00;99.90;;;;;;5004264;28;20042;-79
2023/12/13 05:02:54;;;;;;;43.45;26.98;;;10.00;99.90;;;;;;4985150;28;20047;-77
2023/12/13 05:05:24;;;;;;;44.33;27.52;;;10.00;99.90;;;;;;5005069;28;20390;-77
2023/12/13 05:07:52;;;;;;;45.17;29.48;;;10.00;99.90;;;;;;4986811;28;20140;-78
2023/12/13 05:10:20;;;;;;;42.92;27.52;;;10.00;99.90;;;;;;5005138;28;20145;-78
2023/12/13 05:12:47;;;;;;;40.28;27.23;;;10.10;99.90;;;;;;5003647;28;20046;-78
2023/12/13 05:15:16;;;;;;;39.83;25.55;;;10.00;99.90;;;;;;5002862;28;20045;-78
2023/12/13 05:17:44;;;;;;;46.72;28.27;;;10.10;99.90;;;;;;4985202;28;20050;-77
2023/12/13 05:20:12;;;;;;;44.90;28.23;;;10.00;99.90;;;;;;5007741;28;20048;-76
2023/12/13 05:22:39;;;;;;;42.33;30.08;;;9.90;99.90;;;;;;4982787;28;20674;-78
2023/12/13 05:25:09;;;;;;;46.00;32.75;;;9.90;99.90;;;;;;5004222;28;20046;-78
2023/12/13 05:27:36;;;;;;;46.97;33.08;;;9.90;99.90;;;;;;5003566;28;20042;-76
2023/12/13 05:30:05;;;;;;;49.53;32.85;;;9.90;99.90;;;;;;5002033;28;20097;-76
2023/12/13 05:32:34;;;;;;;42.72;30.35;;;9.90;99.90;;;;;;4984802;28;20054;-76
2023/12/13 05:35:05;;;;;;;44.97;30.95;;;9.80;99.90;;;;;;5001621;28;20039;-78
2023/12/13 05:37:32;;;;;;;49.20;31.90;;;9.80;99.90;;;;;;5006211;28;20057;-79
2023/12/13 05:40:00;;;;;;;43.85;29.90;;;9.90;99.90;;;;;;5009054;28;20113;-77
2023/12/13 05:42:27;;;;;;;49.95;29.70;;;9.90;99.90;;;;;;5014937;28;20069;-79
2023/12/13 05:44:56;;;;;;;45.42;29.80;;;9.90;99.90;;;;;;5017744;28;20034;-78
2023/12/13 05:47:24;;;;;;;53.30;35.75;;;9.90;99.90;;;;;;5017656;28;20050;-77
2023/12/13 05:49:53;;;;;;;55.75;37.47;;;9.90;99.90;;;;;;5015745;28;20076;-78
2023/12/13 05:52:20;;;;;;;56.65;37.00;;;9.90;99.90;;;;;;5011771;28;20085;-76
2023/12/13 05:54:48;;;;;;;65.20;41.95;;;9.90;99.90;;;;;;5001138;28;20479;-77
2023/12/13 05:57:15;;;;;;;67.63;44.40;;;9.80;99.90;;;;;;5000963;28;20042;-76
2023/12/13 05:59:43;;;;;;;55.47;36.42;;;9.80;99.90;;;;;;5002793;28;20054;-78
2023/12/13 06:02:11;;;;;;;59.25;37.15;;;9.70;99.90;;;;;;5001813;28;20038;-79
2023/12/13 06:04:42;;;;;;;45.58;30.08;;;9.80;99.90;;;;;;5003796;28;20048;-78
2023/12/13 06:07:12;;;;;;;46.63;30.88;;;9.80;99.90;;;;;;5001460;28;20047;-79
2023/12/13 06:09:42;;;;;;;45.03;28.50;;;9.80;99.90;;;;;;5000830;28;20042;-79
2023/12/13 06:12:10;;;;;;;41.90;27.50;;;10.00;99.90;;;;;;5000536;28;20076;-79
2023/12/13 06:14:37;;;;;;;47.72;32.05;;;10.00;99.90;;;;;;5001139;28;20093;-79
2023/12/13 06:17:05;;;;;;;45.35;29.85;;;10.00;99.90;;;;;;5001741;28;20046;-77
2023/12/13 06:19:32;;;;;;;49.45;32.75;;;9.90;99.90;;;;;;4984925;28;20108;-77
2023/12/13 06:22:00;;;;;;;55.70;36.67;;;9.80;99.90;;;;;;5002166;28;20042;-77
2023/12/13 06:24:29;;;;;;;55.95;36.08;;;9.80;99.90;;;;;;5007980;28;20064;-78
2023/12/13 06:26:57;;;;;;;58.00;37.05;;;9.80;99.90;;;;;;5002898;28;20033;-79
2023/12/13 06:29:25;;;;;;;56.28;38.45;;;9.80;99.90;;;;;;4985740;28;20380;-79
2023/12/13 06:31:52;;;;;;;59.53;37.72;;;9.80;99.90;;;;;;5001618;28;20443;-77
2023/12/13 06:34:20;;;;;;;73.90;39.83;;;9.90;99.90;;;;;;5001601;28;20161;-78
2023/12/13 06:36:47;;;;;;;61.15;38.03;;;9.90;99.90;;;;;;5005213;28;20038;-78
2023/12/13 06:39:15;;;;;;;56.67;36.60;;;9.90;99.90;;;;;;5004010;28;20043;-78
2023/12/13 06:41:45;;;;;;;61.53;38.95;;;9.90;99.90;;;;;;5000697;28;20105;-78
2023/12/13 06:44:12;;;;;;;80.50;49.63;;;10.00;99.90;;;;;;4998623;28;20070;-80
2023/12/13 06:46:40;;;;;;;73.82;44.05;;;10.00;99.90;;;;;;5002104;28;20046;-78
2023/12/13 06:49:09;;;;;;;103.85;65.28;;;10.20;99.90;;;;;;5002415;28;20304;-80
2023/12/13 06:51:37;;;;;;;82.97;55.78;;;10.00;99.90;;;;;;4985432;28;20049;-80
2023/12/13 06:54:08;;;;;;;57.03;39.30;;;10.00;99.90;;;;;;5009603;28;20109;-79
2023/12/13 06:56:36;;;;;;;54.88;37.97;;;10.10;99.90;;;;;;5002761;28;20604;-78
2023/12/13 06:59:05;;;;;;;54.78;37.10;;;10.20;99.90;;;;;;4999680;28;20129;-78
2023/12/13 07:01:32;;;;;;;44.08;29.35;;;10.20;99.90;;;;;;5000150;28;20042;-77
2023/12/13 07:04:01;;;;;;;56.60;36.42;;;10.30;99.90;;;;;;4982536;28;20129;-79
2023/12/13 07:06:28;;;;;;;66.47;39.08;;;10.40;99.90;;;;;;5002555;28;20046;-79
2023/12/13 07:08:56;;;;;;;68.25;42.28;;;10.30;99.90;;;;;;5001683;28;20060;-79
2023/12/13 07:11:24;;;;;;;71.28;45.30;;;10.30;99.90;;;;;;5001176;28;20118;-78
2023/12/13 07:13:52;;;;;;;71.68;44.10;;;10.30;99.90;;;;;;5001636;28;20041;-78
2023/12/13 07:16:20;;;;;;;83.00;54.17;;;10.40;99.90;;;;;;5001024;28;20490;-80
2023/12/13 07:18:48;;;;;;;76.88;46.92;;;10.40;99.90;;;;;;5002198;28;20050;-80
2023/12/13 07:21:16;;;;;;;68.05;42.80;;;10.50;99.90;;;;;;5002982;28;20096;-78
2023/12/13 07:23:43;;;;;;;68.28;44.10;;;10.60;99.90;;;;;;5001944;28;20046;-77
2023/12/13 07:26:11;;;;;;;62.33;37.72;;;10.60;99.90;;;;;;5000493;28;20096;-78
2023/12/13 07:28:38;;;;;;;65.93;40.67;;;10.60;99.90;;;;;;5000991;28;20048;-79
2023/12/13 07:31:06;;;;;;;62.83;43.03;;;10.60;99.90;;;;;;5000218;28;20042;-79
2023/12/13 07:33:36;;;;;;;61.08;41.50;;;10.70;99.90;;;;;;5001287;28;20100;-79
2023/12/13 07:36:05;;;;;;;64.65;43.65;;;10.90;99.90;;;;;;4983448;28;20038;-79
2023/12/13 07:38:32;;;;;;;71.03;45.17;;;11.00;41.80;;;;;;4997681;28;20049;-77
2023/12/13 07:41:00;;;;;;;74.68;48.80;;;11.00;36.30;;;;;;5001033;28;20046;-78
2023/12/13 07:43:28;;;;;;;79.15;50.55;;;11.20;1.00;;;;;;5000558;28;20051;-78
2023/12/13 07:45:55;;;;;;;79.75;51.95;;;11.10;1.00;;;;;;4991141;28;20133;-77
2023/12/13 07:48:23;;;;;;;89.28;58.70;;;11.10;1.00;;;;;;5015944;28;20105;-78
2023/12/13 07:50:53;;;;;;;90.72;55.03;;;11.10;1.00;;;;;;5010105;28;20504;-77
2023/12/13 07:53:20;;;;;;;85.22;53.90;;;11.10;1.00;;;;;;5009355;28;20062;-81
2023/12/13 07:55:48;;;;;;;97.90;62.67;;;11.10;1.00;;;;;;4980955;28;20046;-79
2023/12/13 07:58:17;;;;;;;95.32;63.45;;;11.20;1.00;;;;;;4981697;28;20038;-79
2023/12/13 08:00:45;;;;;;;99.03;63.47;;;11.30;1.00;;;;;;5000630;28;20080;-79
2023/12/13 08:03:12;;;;;;;101.65;65.63;;;11.40;1.00;;;;;;4981216;28;20057;-78
2023/12/13 08:05:40;;;;;;;109.82;67.65;;;11.40;1.00;;;;;;4982368;28;20046;-80
2023/12/13 08:08:09;;;;;;;94.20;59.22;;;11.50;1.00;;;;;;4981855;28;20053;-79
2023/12/13 08:10:37;;;;;;;94.68;62.47;;;11.50;99.90;;;;;;5004675;28;20072;-78
2023/12/13 08:13:04;;;;;;;107.75;70.95;;;11.50;99.90;;;;;;5003120;28;20100;-79
2023/12/13 08:15:32;;;;;;;115.20;72.88;;;11.60;99.90;;;;;;5003346;28;20591;-78
2023/12/13 08:17:59;;;;;;;117.38;72.35;;;11.70;99.90;;;;;;4987172;28;20037;-77
2023/12/13 08:20:29;;;;;;;109.65;72.22;;;11.70;5.80;;;;;;5007628;28;20034;-78
2023/12/13 08:22:57;;;;;;;117.35;74.97;;;11.80;1.00;;;;;;4990635;28;20419;-79
2023/12/13 08:25:26;;;;;;;117.30;78.85;;;11.90;1.00;;;;;;5010850;28;20049;-77
2023/12/13 08:27:54;;;;;;;114.80;76.45;;;12.00;1.00;;;;;;5012682;28;20128;-79
2023/12/13 08:30:21;;;;;;;116.18;78.60;;;12.00;99.90;;;;;;4988684;28;20499;-77
2023/12/13 08:32:49;;;;;;;119.80;77.10;;;12.00;90.40;;;;;;4988851;28;20410;-77
2023/12/13 08:35:17;;;;;;;118.95;78.15;;;12.10;1.00;;;;;;5005541;28;20048;-79
2023/12/13 08:37:44;;;;;;;122.70;80.18;;;12.30;1.00;;;;;;4986981;28;20487;-78
2023/12/13 08:40:13;;;;;;;132.02;87.43;;;12.40;1.00;;;;;;5005061;28;20046;-78
2023/12/13 08:42:42;;;;;;;137.43;92.18;;;12.30;99.90;;;;;;5005501;28;20046;-80
2023/12/13 08:45:11;;;;;;;141.77;94.55;;;12.40;99.90;;;;;;5002673;28;20100;-79
2023/12/13 08:47:39;;;;;;;169.77;109.45;;;12.50;1.00;;;;;;5004767;28;20069;-78
2023/12/13 08:50:07;;;;;;;172.45;114.05;;;12.30;99.90;;;;;;5004807;28;20041;-77
2023/12/13 08:52:35;;;;;;;167.10;108.93;;;12.50;99.90;;;;;;5005352;28;20034;-77
2023/12/13 08:55:03;;;;;;;174.40;115.72;;;12.50;99.90;;;;;;5002966;28;20650;-78
2023/12/13 08:57:31;;;;;;;179.32;121.55;;;12.70;99.90;;;;;;5005265;28;20043;-77
2023/12/13 09:00:00;;;;;;;175.25;117.05;;;12.90;99.90;;;;;;5005568;28;20454;-77
2023/12/13 09:02:28;;;;;;;183.05;121.30;;;12.90;1.00;;;;;;4994721;28;20042;-78
2023/12/13 09:04:55;;;;;;;178.38;114.10;;;13.00;99.90;;;;;;4992109;28;20057;-79
2023/12/13 09:07:23;;;;;;;167.68;112.00;;;13.10;99.90;;;;;;4991427;28;20050;-76
2023/12/13 09:09:50;;;;;;;168.05;111.80;;;13.30;1.00;;;;;;5007000;28;20355;-77
2023/12/13 09:12:18;;;;;;;177.07;116.25;;;13.50;99.90;;;;;;5006221;28;20042;-78
2023/12/13 09:14:45;;;;;;;192.73;130.52;;;13.70;1.00;;;;;;5002904;28;20644;-78
2023/12/13 09:17:14;;;;;;;160.90;103.70;;;13.90;99.90;;;;;;5004594;28;20042;-79
2023/12/13 09:19:42;;;;;;;168.85;111.55;;;14.00;1.00;;;;;;5006328;28;20042;-77
2023/12/13 09:22:10;;;;;;;157.68;104.45;;;14.10;1.00;;;;;;5003168;28;20038;-79
2023/12/13 09:24:36;;;;;;;151.93;103.00;;;14.40;99.90;;;;;;5009238;28;20043;-79
2023/12/13 09:27:04;;;;;;;149.50;103.18;;;14.40;1.00;;;;;;5002828;28;20050;-78
2023/12/13 09:29:32;;;;;;;252.40;136.73;;;14.60;1.00;;;;;;5002288;28;20054;-78
2023/12/13 09:32:00;;;;;;;168.80;99.22;;;14.70;1.00;;;;;;5003626;28;20057;-79
2023/12/13 09:34:29;;;;;;;102.38;62.10;;;14.80;1.00;;;;;;5001467;28;20466;-76
2023/12/13 09:36:57;;;;;;;68.07;42.47;;;14.80;1.00;;;;;;5001691;28;20054;-79
2023/12/13 09:39:25;;;;;;;84.03;50.30;;;15.10;1.00;;;;;;5003469;28;20129;-79
2023/12/13 09:41:58;;;;;;;58.03;38.15;;;15.40;99.90;;;;;;4986312;28;20145;-79
2023/12/13 09:44:26;;;;;;;63.75;40.15;;;15.70;11.70;;;;;;5001870;28;20154;-78
2023/12/13 09:46:56;;;;;;;39.58;24.80;;;15.90;1.00;;;;;;5002822;28;20065;-78
2023/12/13 09:49:24;;;;;;;19.88;13.57;;;16.20;99.90;;;;;;5012829;28;20457;-79
2023/12/13 09:51:55;;;;;;;19.00;9.75;;;16.30;99.90;;;;;;5004504;28;20045;-78
2023/12/13 09:54:23;;;;;;;16.00;8.13;;;16.60;1.00;;;;;;5006640;28;20133;-77
2023/12/13 09:56:51;;;;;;;13.02;6.43;;;16.70;1.00;;;;;;4990360;28;20506;-79
2023/12/13 09:59:18;;;;;;;8.30;4.88;;;16.90;1.00;;;;;;5004032;28;20069;-78
2023/12/13 10:01:46;;;;;;;8.25;4.05;;;17.10;1.00;;;;;;4988416;28;20165;-79
2023/12/13 10:04:16;;;;;;;10.35;3.80;;;17.30;1.00;;;;;;5007702;28;20052;-78
2023/12/13 10:06:45;;;;;;;9.88;4.25;;;17.40;99.90;;;;;;5010209;28;20052;-79
2023/12/13 10:09:14;;;;;;;11.65;5.10;;;17.40;99.90;;;;;;5008892;28;20066;-78
2023/12/13 10:11:42;;;;;;;9.38;4.43;;;17.60;99.90;;;;;;4987349;28;20149;-78
2023/12/13 10:14:10;;;;;;;9.85;4.25;;;17.70;99.90;;;;;;4999476;28;20076;-77
2023/12/13 10:16:39;;;;;;;5.75;3.83;;;17.80;99.90;;;;;;4981773;28;20267;-80
2023/12/13 10:19:08;;;;;;;6.78;3.67;;;18.00;99.90;;;;;;4999659;28;20069;-77
2023/12/13 10:21:36;;;;;;;13.15;7.43;;;18.10;99.90;;;;;;5002739;28;20033;-77
2023/12/13 10:24:05;;;;;;;8.48;5.00;;;18.10;99.90;;;;;;4983816;28;20121;-77
2023/12/13 10:26:36;;;;;;;7.03;3.83;;;18.10;99.90;;;;;;5002142;28;20038;-77
2023/12/13 10:29:04;;;;;;;9.07;4.30;;;18.10;99.90;;;;;;5000516;28;20490;-78
2023/12/13 10:31:32;;;;;;;6.38;3.53;;;18.10;99.90;;;;;;5001673;28;20038;-78
2023/12/13 10:34:00;;;;;;;4.85;2.63;;;18.20;99.90;;;;;;5001756;28;20042;-78
2023/12/13 10:36:29;;;;;;;6.95;4.13;;;18.30;99.90;;;;;;5001538;28;20046;-77
2023/12/13 10:38:57;;;;;;;6.18;3.10;;;18.30;86.70;;;;;;4983260;28;20053;-78
2023/12/13 10:41:26;;;;;;;7.35;2.97;;;18.40;64.50;;;;;;4983482;28;20498;-79
2023/12/13 10:43:57;;;;;;;8.55;2.97;;;18.30;46.80;;;;;;4999740;28;20102;-78
2023/12/13 10:46:28;;;;;;;7.93;3.13;;;18.30;44.00;;;;;;5001113;28;21028;-76
2023/12/13 10:48:56;;;;;;;8.82;4.50;;;18.30;37.90;;;;;;5001805;28;20458;-77
2023/12/13 10:51:24;;;;;;;9.13;3.00;;;18.40;19.40;;;;;;4982635;28;20478;-77
2023/12/13 10:53:53;;;;;;;8.95;4.15;;;18.40;7.20;;;;;;5000682;28;20042;-77
2023/12/13 10:56:21;;;;;;;7.90;3.92;;;18.30;9.00;;;;;;4998438;28;20047;-80
2023/12/13 10:58:49;;;;;;;8.38;4.60;;;18.30;3.80;;;;;;5000202;28;20046;-78
2023/12/13 11:01:19;;;;;;;6.53;3.30;;;18.40;1.00;;;;;;5000552;28;20100;-78
2023/12/13 11:03:50;;;;;;;9.55;4.30;;;18.50;1.00;;;;;;5001615;28;20137;-79
2023/12/13 11:06:20;;;;;;;5.90;3.72;;;18.40;1.00;;;;;;5000793;28;20074;-77
2023/12/13 11:08:48;;;;;;;12.35;5.38;;;18.40;1.00;;;;;;4983880;28;20066;-77
2023/12/13 11:11:16;;;;;;;8.45;4.13;;;18.40;1.00;;;;;;5000654;28;20130;-78
2023/12/13 11:13:48;;;;;;;11.60;4.20;;;18.40;1.00;;;;;;4999527;28;20115;-81
2023/12/13 11:16:22;;;;;;;9.27;3.83;;;18.60;1.00;;;;;;5000436;28;20073;-78
2023/12/13 11:18:51;;;;;;;10.13;3.30;;;18.50;1.00;;;;;;5000467;28;20057;-76
2023/12/13 11:21:26;;;;;;;8.10;4.60;;;18.50;1.00;;;;;;5001728;28;20034;-77
2023/12/13 11:23:54;;;;;;;8.90;4.70;;;18.50;1.00;;;;;;4999926;28;20121;-78
2023/12/13 11:26:23;;;;;;;8.13;4.22;;;18.60;1.00;;;;;;5001737;28;20070;-76
2023/12/13 11:28:52;;;;;;;6.82;3.13;;;18.60;1.00;;;;;;5004012;28;20041;-77
2023/12/13 11:31:24;;;;;;;9.18;4.13;;;18.60;1.00;;;;;;5004531;28;20042;-79
2023/12/13 11:33:54;;;;;;;7.82;4.03;;;18.80;1.00;;;;;;5010295;28;20049;-78
2023/12/13 11:36:23;;;;;;;10.75;4.32;;;18.70;1.00;;;;;;4990109;28;20046;-79
2023/12/13 11:38:51;;;;;;;8.13;3.92;;;18.80;1.00;;;;;;5003454;28;20042;-78
2023/12/13 11:41:19;;;;;;;6.68;3.33;;;18.80;1.00;;;;;;5003062;28;20108;-77
2023/12/13 11:43:47;;;;;;;13.65;5.03;;;18.90;1.00;;;;;;5000229;28;20046;-78
2023/12/13 11:46:15;;;;;;;12.80;6.28;;;18.90;1.00;;;;;;5001093;28;20057;-79
2023/12/13 11:48:45;;;;;;;10.77;4.70;;;18.90;1.00;;;;;;5006279;28;20058;-77
2023/12/13 11:51:12;;;;;;;12.15;6.70;;;18.90;1.00;;;;;;5005187;28;20529;-77
2023/12/13 11:53:40;;;;;;;13.85;5.30;;;18.90;1.00;;;;;;4980905;28;20050;-78
2023/12/13 11:56:12;;;;;;;10.10;4.30;;;18.90;1.00;;;;;;4998786;28;20049;-77
2023/12/13 11:58:39;;;;;;;10.27;6.07;;;19.00;1.00;;;;;;4982905;28;20136;-79
2023/12/13 12:01:08;;;;;;;12.00;5.22;;;19.00;1.00;;;;;;5002517;28;20136;-78
2023/12/13 12:03:36;;;;;;;11.85;4.32;;;19.00;1.00;;;;;;5000018;28;20038;-77
2023/12/13 12:06:14;;;;;;;7.85;3.30;;;18.90;1.00;;;;;;5000148;28;20106;-77
2023/12/13 12:08:42;;;;;;;8.43;4.05;;;18.90;1.00;;;;;;4982383;28;20051;-77
2023/12/13 12:11:12;;;;;;;10.98;3.83;;;18.90;1.00;;;;;;5000402;28;20050;-78
2023/12/13 12:13:42;;;;;;;6.93;3.78;;;18.90;1.00;;;;;;4981474;28;20073;-78
2023/12/13 12:16:11;;;;;;;13.15;7.25;;;18.80;1.00;;;;;;4998003;28;20045;-79
2023/12/13 12:18:39;;;;;;;12.10;5.68;;;18.80;1.00;;;;;;4997283;28;20133;-79
2023/12/13 12:21:10;;;;;;;12.38;6.45;;;18.80;1.00;;;;;;4999635;28;20042;-79
2023/12/13 12:23:40;;;;;;;10.90;4.15;;;18.80;1.00;;;;;;4978253;28;20057;-79
2023/12/13 12:26:12;;;;;;;6.55;2.58;;;18.80;1.00;;;;;;4998487;28;20080;-78
2023/12/13 12:28:41;;;;;;;8.15;3.33;;;18.90;1.00;;;;;;4998499;28;20066;-79
2023/12/13 12:31:10;;;;;;;7.85;3.17;;;18.80;1.00;;;;;;5000397;28;20153;-78
2023/12/13 12:33:38;;;;;;;6.78;3.28;;;18.70;1.00;;;;;;4999209;28;20042;-77
2023/12/13 12:36:07;;;;;;;7.57;3.67;;;18.70;1.00;;;;;;5002771;28;20118;-78
2023/12/13 12:38:37;;;;;;;10.32;3.40;;;18.70;1.00;;;;;;4983664;28;20049;-78